createdAt,value
2022-11-16T00:00:19.075Z,99973.38
2022-11-16T00:01:29.068Z,99975.81
2022-11-16T00:02:31.471Z,99968.59
2022-11-16T00:03:37.122Z,99974.88
2022-11-16T00:04:39.507Z,99970.34
2022-11-16T00:05:41.698Z,99965.94
2022-11-16T00:06:43.922Z,99969.47
2022-11-16T00:07:46.345Z,99969.78
2022-11-16T00:09:09.964Z,99969.00
2022-11-16T00:10:12.651Z,99964.81
2022-11-16T00:11:17.996Z,99961.09
2022-11-16T00:12:20.175Z,99959.72
2022-11-16T00:13:22.507Z,99957.59
2022-11-16T00:14:27.474Z,99953.75
2022-11-16T00:15:29.839Z,99947.81
2022-11-16T00:16:32.843Z,99949.34
2022-11-16T00:17:36.130Z,99949.22
2022-11-16T00:18:38.309Z,99946.22
2022-11-16T00:19:42.809Z,99941.78
2022-11-16T00:20:45.646Z,99946.28
2022-11-16T00:21:48.042Z,99943.53
2022-11-16T00:22:50.190Z,99939.72
2022-11-16T00:23:52.780Z,99943.44
2022-11-16T00:24:54.907Z,99940.53
2022-11-16T00:26:02.871Z,99941.50
2022-11-16T00:27:05.243Z,99940.78
2022-11-16T00:28:07.941Z,99939.78
2022-11-16T00:29:21.884Z,99940.00
2022-11-16T00:30:24.099Z,99940.09
2022-11-16T00:31:30.011Z,99943.63
2022-11-16T00:32:33.495Z,99942.06
2022-11-16T00:33:39.084Z,99942.28
2022-11-16T00:34:41.773Z,99943.78
2022-11-16T00:35:43.925Z,99938.94
2022-11-16T00:36:46.926Z,99941.41
2022-11-16T00:37:51.189Z,99937.16
2022-11-16T00:38:56.333Z,99939.63
2022-11-16T00:39:58.524Z,99938.31
2022-11-16T00:41:00.871Z,99936.22
2022-11-16T00:42:05.797Z,99943.06
2022-11-16T00:43:08.004Z,99937.97
2022-11-16T00:44:12.997Z,99941.13
2022-11-16T00:45:15.261Z,99941.81
2022-11-16T00:46:17.449Z,99944.25
2022-11-16T00:47:22.406Z,99956.03
2022-11-16T00:48:24.792Z,99952.22
2022-11-16T00:49:27.285Z,99947.75
2022-11-16T00:50:29.670Z,99952.28
2022-11-16T00:51:32.409Z,99951.69
2022-11-16T00:52:37.306Z,99961.56
2022-11-16T00:53:39.952Z,99956.69
2022-11-16T00:54:42.895Z,99963.03
2022-11-16T00:55:46.535Z,99959.13
2022-11-16T00:56:50.557Z,99951.81
2022-11-16T00:57:55.842Z,99957.00
2022-11-16T00:59:00.000Z,99957.44
2022-11-16T01:00:06.831Z,99959.13
2022-11-16T01:01:11.648Z,99958.78
2022-11-16T01:02:14.039Z,99954.13
2022-11-16T01:03:19.505Z,99961.47
2022-11-16T01:04:22.097Z,99952.63
2022-11-16T01:05:24.614Z,99960.56
2022-11-16T01:06:26.797Z,99955.00
2022-11-16T01:07:31.278Z,99955.59
2022-11-16T01:08:35.361Z,99952.53
2022-11-16T01:09:37.946Z,99951.53
2022-11-16T01:10:41.424Z,99950.38
2022-11-16T01:12:04.614Z,99949.78
2022-11-16T01:13:07.443Z,99944.25
2022-11-16T01:14:11.044Z,99942.78
2022-11-16T01:15:13.644Z,99935.72
2022-11-16T01:16:17.919Z,99939.09
2022-11-16T01:17:20.069Z,99934.66
2022-11-16T01:18:22.603Z,99935.44
2022-11-16T01:19:24.790Z,99941.19
2022-11-16T01:20:29.448Z,99937.75
2022-11-16T01:21:34.734Z,99933.13
2022-11-16T01:22:38.351Z,99932.09
2022-11-16T01:23:40.677Z,99930.59
2022-11-16T01:24:42.882Z,99931.56
2022-11-16T01:25:45.230Z,99924.00
2022-11-16T01:26:47.512Z,99923.94
2022-11-16T01:27:49.914Z,99927.28
2022-11-16T01:29:00.119Z,99922.66
2022-11-16T01:30:09.599Z,99924.06
2022-11-16T01:31:14.997Z,99922.75
2022-11-16T01:32:17.645Z,99928.78
2022-11-16T01:33:23.028Z,99925.00
2022-11-16T01:34:26.094Z,99922.13
2022-11-16T01:35:33.494Z,99929.09
2022-11-16T01:36:36.775Z,99924.09
2022-11-16T01:37:40.274Z,99922.66
2022-11-16T01:38:44.026Z,99923.81
2022-11-16T01:39:49.451Z,99919.44
2022-11-16T01:40:52.057Z,99917.19
2022-11-16T01:41:57.248Z,99921.06
2022-11-16T01:42:59.552Z,99918.59
2022-11-16T01:44:02.823Z,99919.59
2022-11-16T01:45:27.825Z,99916.94
2022-11-16T01:46:32.990Z,99923.22
2022-11-16T01:47:36.120Z,99918.84
2022-11-16T01:48:38.794Z,99917.06
2022-11-16T01:49:46.111Z,99918.84
2022-11-16T01:50:50.100Z,99913.97
2022-11-16T01:52:02.008Z,99905.97
2022-11-16T01:53:10.762Z,99906.00
2022-11-16T01:54:22.043Z,99910.25
2022-11-16T01:55:33.624Z,99908.00
2022-11-16T01:57:03.286Z,99902.47
2022-11-16T01:58:28.661Z,99900.34
2022-11-16T01:59:41.085Z,99907.50
2022-11-16T02:00:52.263Z,99905.25
2022-11-16T02:02:17.544Z,99910.31
2022-11-16T02:03:21.508Z,99906.59
2022-11-16T02:04:27.146Z,99906.47
2022-11-16T02:05:42.051Z,99910.47
2022-11-16T02:07:14.947Z,99910.47
2022-11-16T02:09:03.802Z,99901.06
2022-11-16T02:10:46.979Z,99904.38
2022-11-16T02:12:04.131Z,99902.06
2022-11-16T02:13:29.087Z,99894.34
2022-11-16T02:14:51.465Z,99893.22
2022-11-16T02:16:06.108Z,99894.56
2022-11-16T02:17:48.572Z,99893.34
2022-11-16T02:19:06.167Z,99890.75
2022-11-16T02:20:34.804Z,99899.41
2022-11-16T02:21:45.183Z,99894.41
2022-11-16T02:23:15.090Z,99895.91
2022-11-16T02:24:20.035Z,99893.09
2022-11-16T02:25:25.408Z,99885.94
2022-11-16T02:27:04.937Z,99892.03
2022-11-16T02:28:29.127Z,99886.59
2022-11-16T02:29:33.817Z,99892.66
2022-11-16T02:30:38.388Z,99892.31
2022-11-16T02:32:05.284Z,99885.50
2022-11-16T02:33:13.395Z,99881.38
2022-11-16T02:34:21.216Z,99893.59
2022-11-16T02:35:39.962Z,99893.31
2022-11-16T02:36:47.390Z,99890.19
2022-11-16T02:37:58.303Z,99886.63
2022-11-16T02:39:07.575Z,99881.75
2022-11-16T02:40:12.996Z,99882.72
2022-11-16T02:41:20.383Z,99885.81
2022-11-16T02:42:34.188Z,99879.56
2022-11-16T02:43:43.552Z,99877.81
2022-11-16T02:44:49.907Z,99876.53
2022-11-16T02:45:55.799Z,99874.22
2022-11-16T02:47:03.687Z,99868.84
2022-11-16T02:48:14.148Z,99868.31
2022-11-16T02:49:19.280Z,99868.78
2022-11-16T02:50:23.852Z,99870.72
2022-11-16T02:51:30.599Z,99867.34
2022-11-16T02:52:36.993Z,99864.88
2022-11-16T02:53:59.044Z,99860.47
2022-11-16T02:55:01.756Z,99866.59
2022-11-16T02:56:05.301Z,99866.31
2022-11-16T02:57:07.439Z,99856.91
2022-11-16T02:58:12.498Z,99854.06
2022-11-16T02:59:17.672Z,99851.84
2022-11-16T03:00:30.619Z,99861.88
2022-11-16T03:01:38.434Z,99845.16
2022-11-16T03:02:56.829Z,99851.41
2022-11-16T03:04:08.654Z,99851.19
2022-11-16T03:05:35.480Z,99854.38
2022-11-16T03:06:43.831Z,99847.22
2022-11-16T03:07:52.283Z,99852.94
2022-11-16T03:09:21.133Z,99842.91
2022-11-16T03:10:49.755Z,99848.94
2022-11-16T03:12:02.448Z,99845.22
2022-11-16T03:13:12.785Z,99841.88
2022-11-16T03:14:20.477Z,99842.66
2022-11-16T03:15:23.450Z,99846.53
2022-11-16T03:16:37.430Z,99833.19
2022-11-16T03:17:44.501Z,99834.69
2022-11-16T03:18:50.137Z,99830.47
2022-11-16T03:20:06.802Z,99839.66
2022-11-16T03:21:21.795Z,99831.06
2022-11-16T03:22:31.169Z,99825.22
2022-11-16T03:23:33.985Z,99831.06
2022-11-16T03:24:36.733Z,99821.06
2022-11-16T03:25:47.226Z,99828.00
2022-11-16T03:26:58.003Z,99827.69
2022-11-16T03:28:23.851Z,99829.06
2022-11-16T03:29:55.551Z,99833.13
2022-11-16T03:31:04.249Z,99827.16
2022-11-16T03:32:20.289Z,99831.28
2022-11-16T03:33:28.181Z,99828.31
2022-11-16T03:34:35.770Z,99835.34
2022-11-16T03:36:03.571Z,99836.69
2022-11-16T03:37:09.115Z,99831.97
2022-11-16T03:38:15.598Z,99845.56
2022-11-16T03:39:29.617Z,99835.47
2022-11-16T03:40:34.339Z,99837.50
2022-11-16T03:41:41.451Z,99833.53
2022-11-16T03:42:46.009Z,99835.28
2022-11-16T03:43:49.363Z,99836.44
2022-11-16T03:44:52.434Z,99828.94
2022-11-16T03:45:55.296Z,99828.94
2022-11-16T03:46:57.710Z,99836.88
2022-11-16T03:48:00.623Z,99841.25
2022-11-16T03:49:03.092Z,99835.31
2022-11-16T03:50:11.250Z,99832.84
2022-11-16T03:51:15.071Z,99838.53
2022-11-16T03:52:19.025Z,99835.09
2022-11-16T03:53:23.249Z,99839.63
2022-11-16T03:54:26.370Z,99837.34
2022-11-16T03:55:28.620Z,99838.19
2022-11-16T03:56:30.916Z,99848.22
2022-11-16T03:57:33.129Z,99842.84
2022-11-16T03:58:35.860Z,99833.91
2022-11-16T03:59:38.454Z,99844.28
2022-11-16T04:00:40.685Z,99848.22
2022-11-16T04:01:46.320Z,99852.78
2022-11-16T04:02:49.955Z,99845.34
2022-11-16T04:03:55.654Z,99849.56
2022-11-16T04:05:17.928Z,99844.53
2022-11-16T04:06:38.671Z,99839.00
2022-11-16T04:07:59.324Z,99845.06
2022-11-16T04:09:10.645Z,99837.50
2022-11-16T04:10:33.346Z,99836.38
2022-11-16T04:11:54.685Z,99837.75
2022-11-16T04:13:17.662Z,99838.56
2022-11-16T04:14:41.362Z,99833.44
2022-11-16T04:16:05.741Z,99833.28
2022-11-16T04:17:37.983Z,99829.06
2022-11-16T04:18:59.073Z,99832.69
2022-11-16T04:20:19.866Z,99829.75
2022-11-16T04:21:43.202Z,99838.69
2022-11-16T04:23:19.314Z,99823.66
2022-11-16T04:24:25.471Z,99827.34
2022-11-16T04:25:31.993Z,99827.22
2022-11-16T04:26:58.122Z,99822.66
2022-11-16T04:28:16.526Z,99812.31
2022-11-16T04:29:27.714Z,99811.69
2022-11-16T04:30:50.247Z,99811.69
2022-11-16T04:32:12.209Z,99811.50
2022-11-16T04:33:33.225Z,99804.50
2022-11-16T04:34:55.596Z,99805.09
2022-11-16T04:36:20.549Z,99807.81
2022-11-16T04:37:41.907Z,99808.16
2022-11-16T04:38:44.277Z,99798.34
2022-11-16T04:39:46.457Z,99796.75
2022-11-16T04:40:48.701Z,99799.28
2022-11-16T04:42:09.741Z,99798.41
2022-11-16T04:43:12.321Z,99791.16
2022-11-16T04:44:18.346Z,99789.75
2022-11-16T04:45:42.457Z,99785.47
2022-11-16T04:47:04.597Z,99795.00
2022-11-16T04:48:08.852Z,99789.13
2022-11-16T04:49:12.381Z,99787.91
2022-11-16T04:50:14.700Z,99796.06
2022-11-16T04:51:17.875Z,99791.97
2022-11-16T04:52:20.268Z,99792.44
2022-11-16T04:53:27.200Z,99789.03
2022-11-16T04:54:43.040Z,99789.50
2022-11-16T04:55:45.516Z,99785.53
2022-11-16T04:56:49.411Z,99781.97
2022-11-16T04:57:51.712Z,99779.06
2022-11-16T04:58:55.487Z,99777.88
2022-11-16T04:59:57.817Z,99774.63
2022-11-16T05:01:00.430Z,99777.06
2022-11-16T05:02:10.163Z,99769.75
2022-11-16T05:03:26.351Z,99779.28
2022-11-16T05:04:28.958Z,99776.81
2022-11-16T05:05:31.181Z,99771.91
2022-11-16T05:06:35.149Z,99774.97
2022-11-16T05:07:37.572Z,99781.91
2022-11-16T05:08:46.552Z,99778.56
2022-11-16T05:09:51.039Z,99781.81
2022-11-16T05:10:54.338Z,99779.41
2022-11-16T05:11:56.547Z,99770.31
2022-11-16T05:12:58.954Z,99780.81
2022-11-16T05:14:02.930Z,99775.09
2022-11-16T05:15:07.053Z,99778.88
2022-11-16T05:16:09.378Z,99773.91
2022-11-16T05:17:12.144Z,99775.22
2022-11-16T05:18:14.624Z,99772.03
2022-11-16T05:19:35.660Z,99766.19
2022-11-16T05:20:56.627Z,99765.47
2022-11-16T05:21:59.381Z,99774.16
2022-11-16T05:23:01.656Z,99766.63
2022-11-16T05:24:27.105Z,99769.34
2022-11-16T05:25:34.024Z,99768.94
2022-11-16T05:26:40.335Z,99774.94
2022-11-16T05:27:42.918Z,99772.38
2022-11-16T05:28:45.143Z,99774.94
2022-11-16T05:29:49.762Z,99772.69
2022-11-16T05:30:54.439Z,99773.03
2022-11-16T05:32:00.037Z,99768.56
2022-11-16T05:33:02.632Z,99776.72
2022-11-16T05:34:10.063Z,99778.16
2022-11-16T05:35:12.899Z,99773.75
2022-11-16T05:36:15.142Z,99780.16
2022-11-16T05:37:19.117Z,99784.47
2022-11-16T05:38:21.726Z,99780.31
2022-11-16T05:39:28.333Z,99775.53
2022-11-16T05:40:33.077Z,99778.41
2022-11-16T05:41:36.293Z,99775.81
2022-11-16T05:42:38.920Z,99773.81
2022-11-16T05:43:41.210Z,99786.13
2022-11-16T05:44:49.521Z,99783.56
2022-11-16T05:45:52.563Z,99784.25
2022-11-16T05:46:56.099Z,99794.81
2022-11-16T05:47:58.810Z,99791.47
2022-11-16T05:49:01.784Z,99797.53
2022-11-16T05:50:04.427Z,99798.19
2022-11-16T05:51:12.370Z,99795.75
2022-11-16T05:52:14.646Z,99803.28
2022-11-16T05:53:19.430Z,99802.84
2022-11-16T05:54:27.389Z,99793.53
2022-11-16T05:55:31.174Z,99804.91
2022-11-16T05:56:35.206Z,99806.69
2022-11-16T05:57:38.011Z,99803.59
2022-11-16T05:58:40.956Z,99801.19
2022-11-16T05:59:43.909Z,99802.41
2022-11-16T06:00:47.000Z,99809.22
2022-11-16T06:01:50.783Z,99799.34
2022-11-16T06:02:53.138Z,99811.03
2022-11-16T06:04:03.162Z,99806.66
2022-11-16T06:05:07.897Z,99814.66
2022-11-16T06:06:10.824Z,99808.59
2022-11-16T06:07:13.438Z,99811.41
2022-11-16T06:08:16.199Z,99803.66
2022-11-16T06:09:18.820Z,99806.97
2022-11-16T06:10:21.999Z,99805.06
2022-11-16T06:11:28.290Z,99811.50
2022-11-16T06:12:34.150Z,99810.16
2022-11-16T06:13:36.866Z,99813.19
2022-11-16T06:14:39.129Z,99811.97
2022-11-16T06:15:41.577Z,99804.91
2022-11-16T06:16:45.069Z,99809.00
2022-11-16T06:17:47.294Z,99813.25
2022-11-16T06:18:50.760Z,99814.22
2022-11-16T06:19:54.959Z,99805.19
2022-11-16T06:20:57.430Z,99811.09
2022-11-16T06:21:59.798Z,99807.72
2022-11-16T06:23:04.256Z,99803.91
2022-11-16T06:24:09.227Z,99804.13
2022-11-16T06:25:12.102Z,99801.47
2022-11-16T06:26:17.739Z,99809.31
2022-11-16T06:27:21.170Z,99800.47
2022-11-16T06:28:23.872Z,99801.34
2022-11-16T06:29:26.467Z,99805.47
2022-11-16T06:30:29.172Z,99803.03
2022-11-16T06:31:31.395Z,99803.44
2022-11-16T06:32:36.298Z,99812.00
2022-11-16T06:33:39.903Z,99808.53
2022-11-16T06:34:49.031Z,99806.06
2022-11-16T06:35:51.547Z,99804.56
2022-11-16T06:36:57.384Z,99804.94
2022-11-16T06:37:59.860Z,99806.81
2022-11-16T06:39:02.480Z,99802.16
2022-11-16T06:40:11.333Z,99806.94
2022-11-16T06:41:17.336Z,99804.50
2022-11-16T06:42:23.794Z,99794.94
2022-11-16T06:43:27.763Z,99800.34
2022-11-16T06:44:30.800Z,99802.00
2022-11-16T06:45:36.822Z,99800.56
2022-11-16T06:46:40.313Z,99799.44
2022-11-16T06:47:42.933Z,99804.22
2022-11-16T06:48:45.464Z,99797.09
2022-11-16T06:49:49.457Z,99795.72
2022-11-16T06:50:56.398Z,99796.47
2022-11-16T06:51:58.827Z,99795.09
2022-11-16T06:53:01.930Z,99792.75
2022-11-16T06:54:06.241Z,99793.38
2022-11-16T06:55:09.043Z,99793.47
2022-11-16T06:56:15.016Z,99796.34
2022-11-16T06:57:26.599Z,99795.41
2022-11-16T06:58:31.602Z,99795.25
2022-11-16T06:59:34.349Z,99796.31
2022-11-16T07:00:36.836Z,99802.81
2022-11-16T07:01:39.107Z,99802.34
2022-11-16T07:02:47.172Z,99803.59
2022-11-16T07:03:52.742Z,99802.34
2022-11-16T07:04:59.249Z,99800.31
2022-11-16T07:06:11.593Z,99797.75
2022-11-16T07:07:16.379Z,99802.44
2022-11-16T07:08:19.048Z,99804.66
2022-11-16T07:09:21.546Z,99802.00
2022-11-16T07:10:24.634Z,99804.81
2022-11-16T07:11:28.151Z,99797.97
2022-11-16T07:12:30.336Z,99803.41
2022-11-16T07:13:35.234Z,99803.72
2022-11-16T07:14:38.304Z,99802.56
2022-11-16T07:15:43.303Z,99806.72
2022-11-16T07:16:45.548Z,99807.94
2022-11-16T07:17:47.900Z,99806.72
2022-11-16T07:18:50.265Z,99813.06
2022-11-16T07:19:52.601Z,99819.38
2022-11-16T07:20:55.049Z,99816.56
2022-11-16T07:21:57.857Z,99815.88
2022-11-16T07:23:01.558Z,99819.47
2022-11-16T07:24:04.794Z,99826.06
2022-11-16T07:25:08.359Z,99823.59
2022-11-16T07:26:11.449Z,99823.13
2022-11-16T07:27:34.115Z,99814.63
2022-11-16T07:28:36.605Z,99821.91
2022-11-16T07:29:39.533Z,99823.25
2022-11-16T07:31:10.784Z,99824.13
2022-11-16T07:32:13.488Z,99824.91
2022-11-16T07:33:39.118Z,99822.63
2022-11-16T07:35:13.394Z,99821.94
2022-11-16T07:36:16.846Z,99822.47
2022-11-16T07:37:19.198Z,99815.53
2022-11-16T07:38:21.466Z,99819.44
2022-11-16T07:39:23.930Z,99825.09
2022-11-16T07:40:26.356Z,99830.44
2022-11-16T07:41:28.971Z,99822.06
2022-11-16T07:42:45.880Z,99822.22
2022-11-16T07:44:01.662Z,99828.28
2022-11-16T07:45:08.142Z,99829.03
2022-11-16T07:47:44.743Z,99830.09
2022-11-16T07:48:57.179Z,99836.41
2022-11-16T07:50:26.103Z,99824.94
2022-11-16T07:51:28.615Z,99832.41
2022-11-16T07:52:51.445Z,99832.75
2022-11-16T07:53:57.314Z,99834.13
2022-11-16T07:54:59.598Z,99826.13
2022-11-16T07:56:04.055Z,99835.72
2022-11-16T07:57:08.255Z,99826.53
2022-11-16T07:58:10.605Z,99831.38
2022-11-16T07:59:14.053Z,99835.47
2022-11-16T08:00:21.120Z,99839.56
2022-11-16T08:01:33.400Z,99838.53
2022-11-16T08:02:35.919Z,99831.69
2022-11-16T08:03:39.733Z,99842.03
2022-11-16T08:04:42.762Z,99829.38
2022-11-16T08:05:45.444Z,99833.81
2022-11-16T08:06:50.082Z,99832.94
2022-11-16T08:07:53.699Z,99828.06
2022-11-16T08:08:59.635Z,99826.47
2022-11-16T08:10:02.896Z,99826.31
2022-11-16T08:11:08.166Z,99823.59
2022-11-16T08:12:10.618Z,99829.41
2022-11-16T08:13:13.128Z,99823.44
2022-11-16T08:14:19.188Z,99824.53
2022-11-16T08:15:24.856Z,99822.47
2022-11-16T08:16:27.527Z,99824.69
2022-11-16T08:17:38.879Z,99821.78
2022-11-16T08:18:44.243Z,99826.47
2022-11-16T08:19:46.897Z,99817.22
2022-11-16T08:20:51.187Z,99816.50
2022-11-16T08:21:53.599Z,99815.44
2022-11-16T08:23:01.032Z,99821.00
2022-11-16T08:24:06.363Z,99812.91
2022-11-16T08:25:12.135Z,99810.97
2022-11-16T08:26:19.641Z,99814.75
2022-11-16T08:27:28.581Z,99810.97
2022-11-16T08:28:33.477Z,99805.69
2022-11-16T08:29:35.890Z,99811.88
2022-11-16T08:30:40.775Z,99809.56
2022-11-16T08:31:44.952Z,99815.34
2022-11-16T08:32:49.668Z,99812.34
2022-11-16T08:33:52.671Z,99800.69
2022-11-16T08:34:56.133Z,99805.81
2022-11-16T08:36:02.606Z,99803.63
2022-11-16T08:37:04.886Z,99800.84
2022-11-16T08:38:15.059Z,99798.03
2022-11-16T08:39:17.427Z,99802.97
2022-11-16T08:40:19.613Z,99793.63
2022-11-16T08:41:23.212Z,99803.22
2022-11-16T08:42:25.748Z,99798.97
2022-11-16T08:43:31.175Z,99794.97
2022-11-16T08:44:33.364Z,99795.72
2022-11-16T08:45:40.305Z,99806.00
2022-11-16T08:46:42.645Z,99807.94
2022-11-16T08:48:03.447Z,99804.31
2022-11-16T08:49:08.540Z,99808.88
2022-11-16T08:50:10.794Z,99807.44
2022-11-16T08:51:18.567Z,99807.06
2022-11-16T08:52:26.258Z,99815.69
2022-11-16T08:53:30.281Z,99807.81
2022-11-16T08:54:32.742Z,99809.78
2022-11-16T08:55:35.206Z,99810.16
2022-11-16T08:56:37.841Z,99808.31
2022-11-16T08:57:40.946Z,99813.88
2022-11-16T08:58:55.261Z,99808.88
2022-11-16T09:00:00.430Z,99806.78
2022-11-16T09:01:14.909Z,99808.25
2022-11-16T09:02:25.224Z,99804.03
2022-11-16T09:03:27.674Z,99805.66
2022-11-16T09:04:35.698Z,99806.19
2022-11-16T09:05:39.167Z,99808.44
2022-11-16T09:06:41.371Z,99803.22
2022-11-16T09:07:45.750Z,99793.25
2022-11-16T09:08:47.934Z,99805.31
2022-11-16T09:09:50.378Z,99801.63
2022-11-16T09:10:52.600Z,99802.84
2022-11-16T09:11:55.366Z,99794.25
2022-11-16T09:12:57.786Z,99798.31
2022-11-16T09:14:00.047Z,99794.53
2022-11-16T09:15:02.818Z,99788.81
2022-11-16T09:16:05.568Z,99806.72
2022-11-16T09:17:07.713Z,99805.56
2022-11-16T09:18:10.096Z,99801.69
2022-11-16T09:19:12.261Z,99808.59
2022-11-16T09:20:14.900Z,99804.63
2022-11-16T09:21:24.917Z,99798.66
2022-11-16T09:22:27.128Z,99798.78
2022-11-16T09:23:29.691Z,99799.56
2022-11-16T09:24:32.149Z,99795.63
2022-11-16T09:25:34.383Z,99797.72
2022-11-16T09:26:36.547Z,99794.44
2022-11-16T09:27:38.688Z,99794.38
2022-11-16T09:28:41.098Z,99792.28
2022-11-16T09:29:43.663Z,99791.84
2022-11-16T09:30:48.594Z,99791.28
2022-11-16T09:31:50.799Z,99785.69
2022-11-16T09:32:53.103Z,99792.78
2022-11-16T09:33:58.484Z,99796.00
2022-11-16T09:35:00.925Z,99788.16
2022-11-16T09:36:08.227Z,99794.03
2022-11-16T09:37:10.602Z,99791.38
2022-11-16T09:38:17.656Z,99804.66
2022-11-16T09:39:31.103Z,99788.16
2022-11-16T09:40:37.918Z,99790.13
2022-11-16T09:42:08.309Z,99788.75
2022-11-16T09:43:50.992Z,99782.19
2022-11-16T09:45:08.740Z,99781.25
2022-11-16T09:46:13.611Z,99774.34
2022-11-16T09:47:22.283Z,99774.66
2022-11-16T09:48:25.445Z,99772.41
2022-11-16T09:49:40.950Z,99775.81
2022-11-16T09:50:56.791Z,99771.63
2022-11-16T09:52:12.926Z,99777.69
2022-11-16T09:53:18.424Z,99770.31
2022-11-16T09:54:27.215Z,99773.22
2022-11-16T09:55:43.512Z,99771.09
2022-11-16T09:56:49.083Z,99778.75
2022-11-16T09:57:55.662Z,99776.22
2022-11-16T09:59:12.237Z,99779.97
2022-11-16T10:00:22.780Z,99781.59
2022-11-16T10:01:40.101Z,99777.47
2022-11-16T10:02:47.812Z,99777.59
2022-11-16T10:03:55.750Z,99767.88
2022-11-16T10:05:04.759Z,99771.28
2022-11-16T10:06:16.247Z,99766.28
2022-11-16T10:07:27.835Z,99768.75
2022-11-16T10:08:33.060Z,99764.00
2022-11-16T10:09:36.232Z,99761.31
2022-11-16T10:11:11.773Z,99747.31
2022-11-16T10:12:22.890Z,99749.69
2022-11-16T10:13:37.338Z,99746.88
2022-11-16T10:14:48.713Z,99754.97
2022-11-16T10:16:13.690Z,99749.19
2022-11-16T10:17:24.883Z,99741.97
2022-11-16T10:18:50.128Z,99751.56
2022-11-16T10:20:19.725Z,99742.84
2022-11-16T10:21:40.466Z,99743.25
2022-11-16T10:23:18.495Z,99742.25
2022-11-16T10:24:53.624Z,99744.34
2022-11-16T10:26:32.197Z,99742.09
2022-11-16T10:28:02.736Z,99749.59
2022-11-16T10:29:23.205Z,99748.38
2022-11-16T10:30:25.406Z,99747.41
2022-11-16T10:31:54.947Z,99749.84
2022-11-16T10:33:10.854Z,99749.50
2022-11-16T10:34:29.827Z,99748.00
2022-11-16T10:35:44.301Z,99748.03
2022-11-16T10:36:46.455Z,99750.00
2022-11-16T10:37:50.711Z,99746.56
2022-11-16T10:38:55.480Z,99749.38
2022-11-16T10:39:58.085Z,99753.16
2022-11-16T10:41:14.201Z,99750.66
2022-11-16T10:42:41.768Z,99758.56
2022-11-16T10:43:45.566Z,99764.19
2022-11-16T10:44:55.189Z,99763.34
2022-11-16T10:46:09.304Z,99763.53
2022-11-16T10:47:38.743Z,99759.13
2022-11-16T10:49:03.652Z,99757.28
2022-11-16T10:50:32.391Z,99749.53
2022-11-16T10:51:34.749Z,99757.69
2022-11-16T10:52:37.007Z,99752.84
2022-11-16T10:53:41.776Z,99754.63
2022-11-16T10:54:44.545Z,99758.38
2022-11-16T10:56:02.481Z,99748.22
2022-11-16T10:57:13.890Z,99751.91
2022-11-16T10:58:16.168Z,99750.34
2022-11-16T10:59:19.833Z,99749.50
2022-11-16T11:00:48.193Z,99754.34
2022-11-16T11:01:53.320Z,99753.06
2022-11-16T11:02:55.528Z,99752.25
2022-11-16T11:03:57.903Z,99733.97
2022-11-16T11:05:23.155Z,99737.75
2022-11-16T11:06:26.559Z,99739.97
2022-11-16T11:07:33.639Z,99732.28
2022-11-16T11:08:36.020Z,99737.59
2022-11-16T11:09:41.718Z,99734.94
2022-11-16T11:10:58.702Z,99730.19
2022-11-16T11:12:22.445Z,99733.00
2022-11-16T11:13:27.685Z,99732.81
2022-11-16T11:14:32.526Z,99736.59
2022-11-16T11:15:35.195Z,99734.44
2022-11-16T11:16:38.076Z,99733.53
2022-11-16T11:17:42.863Z,99728.66
2022-11-16T11:18:45.616Z,99732.44
2022-11-16T11:19:57.238Z,99729.47
2022-11-16T11:21:08.070Z,99721.88
2022-11-16T11:22:13.340Z,99722.22
2022-11-16T11:23:25.109Z,99723.72
2022-11-16T11:24:43.252Z,99722.66
2022-11-16T11:25:53.248Z,99720.00
2022-11-16T11:26:59.261Z,99718.00
2022-11-16T11:28:22.875Z,99722.81
2022-11-16T11:29:31.972Z,99724.78
2022-11-16T11:30:35.309Z,99725.50
2022-11-16T11:31:47.201Z,99723.44
2022-11-16T11:32:50.410Z,99727.16
2022-11-16T11:34:00.729Z,99728.63
2022-11-16T11:35:03.597Z,99728.75
2022-11-16T11:36:18.795Z,99733.34
2022-11-16T11:37:34.795Z,99729.28
2022-11-16T11:39:00.153Z,99730.16
2022-11-16T11:40:23.584Z,99724.47
2022-11-16T11:41:32.461Z,99714.47
2022-11-16T11:42:34.728Z,99725.50
2022-11-16T11:43:37.611Z,99722.78
2022-11-16T11:44:54.464Z,99731.13
2022-11-16T11:46:02.949Z,99725.41
2022-11-16T11:48:41.522Z,99729.66
2022-11-16T11:49:50.136Z,99719.78
2022-11-16T11:51:02.803Z,99722.16
2022-11-16T11:52:26.477Z,99715.19
2022-11-16T11:53:47.455Z,99723.22
2022-11-16T11:54:50.169Z,99723.66
2022-11-16T11:55:57.125Z,99717.53
2022-11-16T11:57:03.122Z,99712.63
2022-11-16T11:58:06.728Z,99722.03
2022-11-16T11:59:15.481Z,99713.66
2022-11-16T12:00:18.378Z,99715.69
2022-11-16T12:01:51.617Z,99707.44
2022-11-16T12:03:12.069Z,99715.81
2022-11-16T12:04:44.543Z,99706.84
2022-11-16T12:06:28.152Z,99716.84
2022-11-16T12:07:46.547Z,99716.75
2022-11-16T12:09:00.839Z,99704.06
2022-11-16T12:10:12.139Z,99710.59
2022-11-16T12:11:34.458Z,99708.91
2022-11-16T12:13:13.905Z,99707.72
2022-11-16T12:14:16.329Z,99703.84
2022-11-16T12:15:45.447Z,99712.81
2022-11-16T12:16:53.699Z,99715.41
2022-11-16T12:18:04.765Z,99717.84
2022-11-16T12:19:33.499Z,99714.97
2022-11-16T12:21:01.099Z,99703.81
2022-11-16T12:22:09.018Z,99708.31
2022-11-16T12:23:30.564Z,99705.91
2022-11-16T12:24:35.622Z,99707.75
2022-11-16T12:25:40.717Z,99712.50
2022-11-16T12:26:46.151Z,99706.81
2022-11-16T12:28:08.908Z,99706.22
2022-11-16T12:29:37.180Z,99708.44
2022-11-16T12:31:01.634Z,99717.81
2022-11-16T12:32:27.638Z,99713.16
2022-11-16T12:33:33.090Z,99717.69
2022-11-16T12:34:41.277Z,99722.03
2022-11-16T12:36:12.167Z,99716.41
2022-11-16T12:37:14.490Z,99716.28
2022-11-16T12:38:34.692Z,99721.06
2022-11-16T12:40:09.981Z,99713.53
2022-11-16T12:41:31.557Z,99714.28
2022-11-16T12:42:56.121Z,99714.28
2022-11-16T12:44:05.165Z,99713.03
2022-11-16T12:45:37.942Z,99706.69
2022-11-16T12:47:04.262Z,99721.66
2022-11-16T12:48:31.147Z,99718.50
2022-11-16T12:50:01.106Z,99716.50
2022-11-16T12:51:09.388Z,99711.44
2022-11-16T12:52:34.136Z,99712.25
2022-11-16T12:53:58.242Z,99711.31
2022-11-16T12:55:26.937Z,99709.69
2022-11-16T12:56:48.895Z,99711.00
2022-11-16T12:58:26.716Z,99708.38
2022-11-16T12:59:47.211Z,99699.44
2022-11-16T13:01:02.857Z,99706.16
2022-11-16T13:02:30.032Z,99702.13
2022-11-16T13:03:32.615Z,99705.56
2022-11-16T13:04:47.272Z,99704.84
2022-11-16T13:06:39.989Z,99703.63
2022-11-16T13:08:12.709Z,99696.56
2022-11-16T13:09:36.058Z,99694.78
2022-11-16T13:10:43.075Z,99699.25
2022-11-16T13:11:54.778Z,99699.28
2022-11-16T13:13:36.442Z,99696.91
2022-11-16T13:14:48.169Z,99692.91
2022-11-16T13:15:52.662Z,99696.63
2022-11-16T13:16:57.165Z,99687.28
2022-11-16T13:18:01.716Z,99696.44
2022-11-16T13:19:06.889Z,99695.03
2022-11-16T13:20:45.904Z,99698.59
2022-11-16T13:21:55.928Z,99694.47
2022-11-16T13:23:18.286Z,99695.59
2022-11-16T13:24:26.341Z,99693.56
2022-11-16T13:26:00.607Z,99703.88
2022-11-16T13:27:23.835Z,99700.50
2022-11-16T13:28:36.413Z,99707.75
2022-11-16T13:29:50.797Z,99702.88
2022-11-16T13:31:19.094Z,99705.19
2022-11-16T13:32:34.823Z,99702.91
2022-11-16T13:33:51.323Z,99704.03
2022-11-16T13:34:54.079Z,99702.97
2022-11-16T13:35:56.262Z,99701.03
2022-11-16T13:36:58.659Z,99706.44
2022-11-16T13:38:01.001Z,99709.53